createdAt,value
2023-01-17T00:02:16.712Z,96.90
2023-01-17T00:05:02.949Z,97.20
2023-01-17T00:07:49.090Z,97.40
2023-01-17T00:10:18.379Z,97.30
2023-01-17T00:12:53.335Z,97.30
2023-01-17T00:15:21.058Z,97.50
2023-01-17T00:17:49.123Z,97.80
2023-01-17T00:20:35.862Z,97.80
2023-01-17T00:23:26.238Z,97.80
2023-01-17T00:26:05.477Z,98.00
2023-01-17T00:28:37.577Z,98.30
2023-01-17T00:31:05.522Z,97.90
2023-01-17T00:33:32.891Z,98.20
2023-01-17T00:36:00.470Z,98.30
2023-01-17T00:38:29.706Z,98.40
2023-01-17T00:41:11.170Z,98.30
2023-01-17T00:43:57.128Z,98.50
2023-01-17T00:46:43.278Z,98.80
2023-01-17T00:49:29.038Z,98.70
2023-01-17T00:52:14.739Z,98.80
2023-01-17T00:55:00.303Z,98.70
2023-01-17T00:57:46.172Z,98.60
2023-01-17T01:00:32.401Z,98.40
2023-01-17T01:03:18.171Z,98.20
2023-01-17T01:06:03.963Z,98.30
2023-01-17T01:08:50.196Z,98.30
2023-01-17T01:11:38.508Z,98.60
2023-01-17T01:14:25.854Z,98.70
2023-01-17T01:17:11.593Z,98.70
2023-01-17T01:19:57.225Z,98.80
2023-01-17T01:22:43.120Z,99.00
2023-01-17T01:25:29.149Z,98.90
2023-01-17T01:28:22.866Z,99.00
2023-01-17T01:31:08.677Z,99.00
2023-01-17T01:33:36.372Z,98.70
2023-01-17T01:36:03.908Z,98.70
2023-01-17T01:38:31.237Z,98.60
2023-01-17T01:40:58.557Z,98.80
2023-01-17T01:43:47.913Z,98.70
2023-01-17T01:46:16.837Z,98.40
2023-01-17T01:48:48.000Z,98.20
2023-01-17T01:51:19.387Z,98.50
2023-01-17T01:53:48.153Z,98.30
2023-01-17T01:56:15.779Z,98.30
2023-01-17T01:58:45.138Z,98.30
2023-01-17T02:01:12.769Z,98.30
2023-01-17T02:03:40.494Z,98.30
2023-01-17T02:06:19.704Z,98.30
2023-01-17T02:08:47.376Z,98.30
2023-01-17T02:11:14.735Z,98.30
2023-01-17T02:13:42.904Z,98.30
2023-01-17T02:16:44.395Z,98.20
2023-01-17T02:19:46.344Z,98.20
2023-01-17T02:22:54.833Z,98.40
2023-01-17T02:25:47.360Z,98.20
2023-01-17T02:28:36.852Z,98.30
2023-01-17T02:31:27.656Z,98.50
2023-01-17T02:34:06.703Z,98.30
2023-01-17T02:36:36.905Z,98.50
2023-01-17T02:39:21.883Z,98.70
2023-01-17T02:41:54.805Z,98.70
2023-01-17T02:44:22.798Z,98.80
2023-01-17T02:46:57.315Z,99.10
2023-01-17T02:49:26.657Z,99.00
2023-01-17T02:52:15.294Z,99.20
2023-01-17T02:54:44.713Z,99.30
2023-01-17T02:57:49.827Z,99.40
2023-01-17T03:00:32.584Z,99.50
2023-01-17T03:03:24.511Z,99.60
2023-01-17T03:05:55.124Z,99.50
2023-01-17T03:08:22.505Z,99.50
2023-01-17T03:10:49.897Z,99.30
2023-01-17T03:13:17.281Z,99.50
2023-01-17T03:15:44.619Z,99.50
2023-01-17T03:18:13.841Z,99.70
2023-01-17T03:20:41.234Z,99.70
2023-01-17T03:23:08.832Z,99.60
2023-01-17T03:25:36.196Z,99.90
2023-01-17T03:28:04.197Z,99.80
2023-01-17T03:30:31.651Z,99.60
2023-01-17T03:32:59.044Z,99.50
2023-01-17T03:35:28.165Z,99.50
2023-01-17T03:37:55.512Z,99.70
2023-01-17T03:40:22.842Z,99.80
2023-01-17T03:42:50.196Z,99.40
2023-01-17T03:45:17.497Z,99.60
2023-01-17T03:47:44.833Z,99.80
2023-01-17T03:50:12.678Z,99.90
2023-01-17T03:52:40.052Z,99.90
2023-01-17T03:55:07.832Z,99.90
2023-01-17T03:57:35.259Z,99.90
2023-01-17T04:00:02.673Z,99.90
2023-01-17T04:02:34.290Z,99.90
2023-01-17T04:05:01.674Z,99.90
2023-01-17T04:07:29.036Z,99.90
2023-01-17T04:09:56.375Z,99.90
2023-01-17T04:12:23.704Z,99.90
2023-01-17T04:14:51.111Z,99.90
2023-01-17T04:17:19.178Z,99.90
2023-01-17T04:19:46.530Z,99.90
2023-01-17T04:22:13.940Z,99.90
2023-01-17T04:24:41.242Z,99.90
2023-01-17T04:27:09.115Z,99.90
2023-01-17T04:29:36.427Z,99.90
2023-01-17T04:32:03.936Z,99.90
2023-01-17T04:34:31.259Z,99.90
2023-01-17T04:36:58.638Z,99.90
2023-01-17T04:39:25.935Z,99.90
2023-01-17T04:41:53.269Z,99.90
2023-01-17T04:44:20.555Z,99.90
2023-01-17T04:46:47.888Z,99.90
2023-01-17T04:49:15.180Z,99.90
2023-01-17T04:51:43.013Z,99.90
2023-01-17T04:54:10.285Z,99.90
2023-01-17T04:56:37.588Z,99.90
2023-01-17T04:59:05.004Z,99.90
2023-01-17T05:01:32.402Z,99.90
2023-01-17T05:03:59.740Z,99.90
2023-01-17T05:06:27.084Z,99.90
2023-01-17T05:08:54.564Z,99.90
2023-01-17T05:11:21.932Z,99.90
2023-01-17T05:13:49.322Z,99.90
2023-01-17T05:16:19.755Z,99.90
2023-01-17T05:18:47.123Z,99.90
2023-01-17T05:21:14.445Z,99.90
2023-01-17T05:23:42.686Z,99.90
2023-01-17T05:26:10.015Z,99.90
2023-01-17T05:28:37.328Z,99.90
2023-01-17T05:31:04.878Z,99.90
2023-01-17T05:33:32.230Z,99.90
2023-01-17T05:35:59.563Z,99.90
2023-01-17T05:38:26.989Z,99.80
2023-01-17T05:40:54.304Z,99.60
2023-01-17T05:43:22.851Z,99.40
2023-01-17T05:45:50.220Z,99.40
2023-01-17T05:48:18.623Z,99.40
2023-01-17T05:50:46.082Z,99.70
2023-01-17T05:53:14.819Z,99.50
2023-01-17T05:55:42.471Z,99.20
2023-01-17T05:58:15.326Z,99.30
2023-01-17T06:00:42.876Z,99.30
2023-01-17T06:03:10.335Z,99.30
2023-01-17T06:05:37.706Z,99.10
2023-01-17T06:08:05.294Z,99.10
2023-01-17T06:10:32.712Z,99.20
2023-01-17T06:13:08.214Z,99.10
2023-01-17T06:15:36.791Z,99.40
2023-01-17T06:18:09.034Z,99.10
2023-01-17T06:20:36.553Z,99.30
2023-01-17T06:23:04.545Z,99.00
2023-01-17T06:25:39.628Z,99.20
2023-01-17T06:28:07.487Z,99.40
2023-01-17T06:30:35.098Z,99.20
2023-01-17T06:33:02.845Z,99.40
2023-01-17T06:35:30.258Z,99.40
2023-01-17T06:37:59.728Z,99.20
2023-01-17T06:40:28.063Z,99.30
2023-01-17T06:42:59.136Z,99.10
2023-01-17T06:45:26.422Z,99.30
2023-01-17T06:47:53.925Z,99.50
2023-01-17T06:50:21.281Z,99.40
2023-01-17T06:53:00.124Z,99.40
2023-01-17T06:55:31.068Z,99.50
2023-01-17T06:57:59.721Z,99.40
2023-01-17T07:00:27.591Z,99.40
2023-01-17T07:02:55.047Z,99.60
2023-01-17T07:05:22.388Z,99.20
2023-01-17T07:07:49.775Z,99.20
2023-01-17T07:10:17.192Z,99.10
2023-01-17T07:12:44.634Z,99.20
2023-01-17T07:15:12.282Z,99.10
2023-01-17T07:17:39.685Z,99.30
2023-01-17T07:20:07.632Z,99.20
2023-01-17T07:22:35.392Z,99.60
2023-01-17T07:25:02.740Z,99.50
2023-01-17T07:27:30.732Z,99.40
2023-01-17T07:29:58.230Z,99.30
2023-01-17T07:32:28.305Z,99.00
2023-01-17T07:34:57.625Z,99.40
2023-01-17T07:37:26.425Z,99.50
2023-01-17T07:39:54.566Z,99.60
2023-01-17T07:42:24.061Z,99.40
2023-01-17T07:44:51.710Z,99.30
2023-01-17T07:47:19.977Z,99.10
2023-01-17T07:49:47.394Z,98.90
2023-01-17T07:52:16.876Z,98.80
2023-01-17T07:54:45.368Z,98.70
2023-01-17T07:57:12.826Z,98.40
2023-01-17T07:59:40.144Z,98.60
2023-01-17T08:02:12.791Z,98.30
2023-01-17T08:04:40.120Z,98.00
2023-01-17T08:07:07.409Z,97.80
2023-01-17T08:09:34.732Z,97.70
2023-01-17T08:12:02.205Z,97.70
2023-01-17T08:14:29.819Z,97.60
2023-01-17T08:17:07.255Z,97.50
2023-01-17T08:19:34.590Z,97.90
2023-01-17T08:22:02.372Z,97.60
2023-01-17T08:24:29.677Z,97.70
2023-01-17T08:26:57.203Z,97.40
2023-01-17T08:29:24.522Z,97.50
2023-01-17T08:31:52.177Z,97.20
2023-01-17T08:34:19.521Z,97.40
2023-01-17T08:36:47.959Z,97.30
2023-01-17T08:39:15.430Z,97.10
2023-01-17T08:41:42.896Z,97.00
2023-01-17T08:44:10.312Z,97.10
2023-01-17T08:46:38.882Z,96.80
2023-01-17T08:49:06.199Z,96.70
2023-01-17T08:51:33.545Z,96.30
2023-01-17T08:54:00.952Z,95.90
2023-01-17T08:56:28.352Z,95.70
2023-01-17T08:58:55.748Z,95.50
2023-01-17T09:01:23.234Z,95.40
2023-01-17T09:03:51.516Z,95.30
2023-01-17T09:06:20.107Z,94.80
2023-01-17T09:08:47.956Z,94.60
2023-01-17T09:11:18.806Z,94.10
2023-01-17T09:13:46.515Z,94.30
2023-01-17T09:16:13.857Z,94.40
2023-01-17T09:18:41.259Z,93.90
2023-01-17T09:21:16.122Z,93.80
2023-01-17T09:23:43.618Z,93.60
2023-01-17T09:26:22.039Z,93.40
2023-01-17T09:28:49.413Z,93.50
2023-01-17T09:31:17.709Z,93.80
2023-01-17T09:33:45.217Z,93.40
2023-01-17T09:36:12.762Z,92.90
2023-01-17T09:38:40.204Z,92.90
2023-01-17T09:41:27.739Z,92.60
2023-01-17T09:44:21.119Z,92.80
2023-01-17T09:46:48.905Z,92.20
2023-01-17T09:49:44.248Z,92.40
2023-01-17T09:52:14.103Z,92.20
2023-01-17T09:54:42.204Z,91.40
2023-01-17T09:57:28.907Z,91.00
2023-01-17T10:00:04.332Z,90.50
2023-01-17T10:02:56.005Z,89.70
2023-01-17T10:05:41.991Z,87.10
2023-01-17T10:08:31.347Z,87.60
2023-01-17T10:11:26.572Z,85.80
2023-01-17T10:14:05.923Z,87.00
2023-01-17T10:16:58.127Z,88.00
2023-01-17T10:19:29.731Z,86.50
2023-01-17T10:22:04.170Z,85.40
2023-01-17T10:24:53.167Z,82.40
2023-01-17T10:27:24.530Z,82.70
2023-01-17T10:29:52.072Z,82.90
2023-01-17T10:32:20.096Z,80.60
2023-01-17T10:34:51.550Z,81.10
2023-01-17T10:37:32.923Z,81.80
2023-01-17T10:40:12.044Z,80.10
2023-01-17T10:42:45.099Z,80.10
2023-01-17T10:45:20.817Z,78.50
2023-01-17T10:47:51.777Z,77.60
2023-01-17T10:50:19.921Z,79.20
2023-01-17T10:53:00.797Z,76.90
2023-01-17T10:55:37.293Z,75.70
2023-01-17T10:58:04.660Z,73.70
2023-01-17T11:01:04.694Z,74.70
2023-01-17T11:03:32.165Z,73.70
2023-01-17T11:06:22.234Z,73.10
2023-01-17T11:08:54.403Z,75.20
2023-01-17T11:11:25.915Z,76.60
2023-01-17T11:13:53.749Z,76.50
2023-01-17T11:16:27.524Z,76.70
2023-01-17T11:19:27.777Z,77.40
2023-01-17T11:21:58.517Z,78.00
2023-01-17T11:24:48.957Z,77.80
2023-01-17T11:27:30.101Z,78.30
2023-01-17T11:30:07.036Z,78.10
2023-01-17T11:32:34.703Z,77.90
2023-01-17T11:35:16.417Z,77.00
2023-01-17T11:38:02.895Z,78.10
2023-01-17T11:40:42.847Z,78.00
2023-01-17T11:43:18.485Z,78.50
2023-01-17T11:45:46.983Z,79.30
2023-01-17T11:48:16.883Z,77.50
2023-01-17T11:50:55.149Z,78.10
2023-01-17T11:53:33.383Z,78.20
2023-01-17T11:56:08.955Z,78.20
2023-01-17T11:58:38.814Z,78.70
2023-01-17T12:01:37.346Z,78.90
2023-01-17T12:04:20.116Z,78.80
2023-01-17T12:07:11.091Z,81.00
2023-01-17T12:09:53.526Z,79.50
2023-01-17T12:12:54.661Z,80.10
2023-01-17T12:16:28.493Z,80.50
2023-01-17T12:19:26.898Z,80.10
2023-01-17T12:22:09.263Z,80.50
2023-01-17T12:24:54.889Z,79.90
2023-01-17T12:27:31.745Z,79.30
2023-01-17T12:30:11.820Z,79.40
2023-01-17T12:32:57.488Z,80.00
2023-01-17T12:35:38.568Z,79.60
2023-01-17T12:38:18.089Z,79.30
2023-01-17T12:41:03.013Z,79.90
2023-01-17T12:43:35.292Z,79.80
2023-01-17T12:46:10.563Z,79.70
2023-01-17T12:48:39.367Z,80.50
2023-01-17T12:51:21.638Z,80.20
2023-01-17T12:54:26.771Z,79.20
2023-01-17T12:57:02.584Z,78.90
2023-01-17T12:59:37.882Z,78.30
2023-01-17T13:02:15.590Z,77.40
2023-01-17T13:04:58.341Z,77.00
2023-01-17T13:07:42.575Z,77.10
2023-01-17T13:10:32.955Z,76.80
2023-01-17T13:13:04.430Z,76.20
2023-01-17T13:15:37.539Z,76.50
2023-01-17T13:18:15.508Z,77.20
2023-01-17T13:20:56.176Z,77.60
2023-01-17T13:23:30.367Z,77.90
2023-01-17T13:25:58.544Z,77.40
2023-01-17T13:28:47.081Z,78.60
2023-01-17T13:31:28.918Z,79.00
2023-01-17T13:34:17.856Z,78.60
2023-01-17T13:36:54.531Z,78.70
2023-01-17T13:39:40.718Z,78.70
2023-01-17T13:42:13.163Z,78.70
2023-01-17T13:44:40.574Z,78.70
2023-01-17T13:47:11.268Z,79.80
2023-01-17T13:49:42.355Z,80.10
2023-01-17T13:52:18.793Z,79.80
2023-01-17T13:54:47.863Z,80.90
2023-01-17T13:57:29.886Z,82.50
2023-01-17T13:59:58.418Z,83.00
2023-01-17T14:02:31.623Z,83.20
2023-01-17T14:05:21.393Z,83.80
2023-01-17T14:08:03.364Z,83.90
2023-01-17T14:10:36.052Z,83.90
2023-01-17T14:13:04.780Z,83.50
2023-01-17T14:15:33.956Z,84.30
2023-01-17T14:18:04.720Z,85.30
2023-01-17T14:20:40.258Z,85.80
2023-01-17T14:23:29.034Z,85.90
2023-01-17T14:25:57.484Z,86.30
2023-01-17T14:28:29.276Z,87.60
2023-01-17T14:30:56.787Z,87.90
2023-01-17T14:33:29.176Z,88.90
2023-01-17T14:35:58.320Z,89.00
2023-01-17T14:38:29.996Z,88.80
2023-01-17T14:41:07.875Z,89.20
2023-01-17T14:43:40.867Z,88.10
2023-01-17T14:46:15.437Z,88.70
2023-01-17T14:48:42.805Z,88.10
2023-01-17T14:51:22.880Z,89.10
2023-01-17T14:53:57.803Z,89.40
2023-01-17T14:56:29.304Z,90.00
2023-01-17T14:59:17.243Z,90.20
2023-01-17T15:02:05.725Z,89.80
2023-01-17T15:04:39.240Z,90.00
2023-01-17T15:07:07.116Z,90.60
2023-01-17T15:09:37.536Z,90.80
2023-01-17T15:12:05.099Z,91.20
2023-01-17T15:14:34.528Z,91.10
2023-01-17T15:17:17.208Z,91.50
2023-01-17T15:19:45.743Z,91.60
2023-01-17T15:22:13.034Z,91.80
2023-01-17T15:24:41.521Z,91.90
2023-01-17T15:27:11.404Z,92.20
2023-01-17T15:29:39.551Z,92.40
2023-01-17T15:32:06.999Z,92.20
2023-01-17T15:34:38.572Z,92.20
2023-01-17T15:37:08.120Z,92.00
2023-01-17T15:39:37.550Z,92.10
2023-01-17T15:42:15.007Z,92.20
2023-01-17T15:44:48.501Z,92.00
2023-01-17T15:47:33.582Z,92.40
2023-01-17T15:50:01.924Z,92.70
2023-01-17T15:52:29.447Z,92.70
2023-01-17T15:55:13.243Z,92.70
2023-01-17T15:57:40.786Z,93.20
2023-01-17T16:00:18.852Z,93.30
2023-01-17T16:02:46.759Z,93.30
2023-01-17T16:05:23.616Z,93.30
2023-01-17T16:07:55.972Z,93.40
2023-01-17T16:10:25.154Z,93.50
2023-01-17T16:12:54.164Z,93.80
2023-01-17T16:15:23.767Z,94.00
2023-01-17T16:17:58.720Z,93.80
2023-01-17T16:20:28.374Z,94.10
2023-01-17T16:22:55.809Z,94.20
2023-01-17T16:25:24.258Z,94.00
2023-01-17T16:27:52.635Z,94.10
2023-01-17T16:30:21.659Z,94.30
2023-01-17T16:32:49.172Z,94.10
2023-01-17T16:35:20.736Z,94.30
2023-01-17T16:37:52.002Z,94.30
2023-01-17T16:40:20.379Z,94.30
2023-01-17T16:42:47.857Z,94.40
2023-01-17T16:45:15.549Z,94.60
2023-01-17T16:47:43.831Z,94.70
2023-01-17T16:50:12.076Z,95.00
2023-01-17T16:52:39.727Z,95.10
2023-01-17T16:55:09.149Z,94.90
2023-01-17T16:57:36.527Z,94.90
2023-01-17T17:00:05.118Z,94.80
2023-01-17T17:02:32.903Z,94.80
2023-01-17T17:05:00.411Z,95.20
2023-01-17T17:07:27.826Z,95.00
2023-01-17T17:09:55.247Z,95.20
2023-01-17T17:12:22.620Z,95.50
2023-01-17T17:14:49.947Z,95.10
2023-01-17T17:17:17.308Z,95.10
2023-01-17T17:19:44.633Z,95.10
2023-01-17T17:22:11.961Z,95.60
2023-01-17T17:24:39.342Z,95.30
2023-01-17T17:27:06.672Z,95.60
2023-01-17T17:29:34.073Z,95.80
2023-01-17T17:32:01.739Z,95.80
2023-01-17T17:34:30.818Z,95.70
2023-01-17T17:36:58.140Z,95.80
2023-01-17T17:39:25.462Z,96.00
2023-01-17T17:41:52.778Z,95.90
2023-01-17T17:44:20.125Z,95.70
2023-01-17T17:46:49.480Z,95.80
2023-01-17T17:49:17.117Z,95.40
2023-01-17T17:51:44.917Z,95.10
2023-01-17T17:54:13.147Z,95.00
2023-01-17T17:56:40.536Z,95.10
2023-01-17T17:59:09.009Z,95.20
2023-01-17T18:01:40.884Z,95.20
2023-01-17T18:04:08.675Z,95.20
2023-01-17T18:06:36.431Z,95.20
2023-01-17T18:09:03.863Z,95.00
2023-01-17T18:11:31.561Z,95.50
2023-01-17T18:14:00.370Z,95.50
2023-01-17T18:16:29.749Z,95.50
2023-01-17T18:18:57.681Z,95.50
2023-01-17T18:21:29.695Z,95.80
2023-01-17T18:24:10.227Z,95.90
2023-01-17T18:26:38.368Z,96.10
2023-01-17T18:29:06.686Z,96.10
2023-01-17T18:31:34.365Z,95.80
2023-01-17T18:34:05.176Z,95.70
2023-01-17T18:36:34.668Z,95.70
2023-01-17T18:39:02.499Z,95.90
2023-01-17T18:41:31.068Z,95.80
2023-01-17T18:43:58.505Z,96.20
2023-01-17T18:46:26.363Z,96.10
2023-01-17T18:48:55.741Z,96.30
2023-01-17T18:51:23.293Z,96.30
2023-01-17T18:53:50.628Z,96.30
2023-01-17T18:56:19.470Z,96.00
2023-01-17T18:58:47.862Z,96.00
2023-01-17T19:01:16.193Z,95.70
2023-01-17T19:03:46.065Z,95.70
2023-01-17T19:06:15.584Z,95.90
2023-01-17T19:08:42.969Z,96.10
2023-01-17T19:11:10.669Z,96.10
2023-01-17T19:13:38.736Z,95.90
2023-01-17T19:16:07.650Z,95.70
2023-01-17T19:18:35.128Z,96.00
2023-01-17T19:21:06.646Z,95.90
2023-01-17T19:23:35.067Z,95.80
2023-01-17T19:26:06.129Z,95.70
2023-01-17T19:28:35.662Z,95.60
2023-01-17T19:31:10.092Z,95.90
2023-01-17T19:33:38.480Z,96.00
2023-01-17T19:36:07.309Z,96.50
2023-01-17T19:38:35.406Z,97.20
2023-01-17T19:41:14.962Z,97.50
2023-01-17T19:43:42.667Z,98.40
2023-01-17T19:46:10.520Z,97.70
2023-01-17T19:48:38.713Z,97.60
2023-01-17T19:51:10.993Z,97.80
2023-01-17T19:53:38.740Z,98.00
2023-01-17T19:56:10.694Z,97.90
2023-01-17T19:58:38.255Z,97.70
2023-01-17T20:01:08.038Z,97.80
2023-01-17T20:03:36.336Z,97.70
2023-01-17T20:06:05.548Z,97.90
2023-01-17T20:08:33.962Z,98.00
2023-01-17T20:11:05.716Z,97.70
2023-01-17T20:13:33.260Z,97.40
2023-01-17T20:16:04.862Z,97.40
2023-01-17T20:18:32.371Z,97.30
2023-01-17T20:21:07.336Z,97.50
2023-01-17T20:23:38.839Z,97.40
2023-01-17T20:26:06.300Z,97.70
2023-01-17T20:28:34.634Z,97.80
2023-01-17T20:31:12.737Z,97.90
2023-01-17T20:33:43.983Z,98.00
2023-01-17T20:36:14.833Z,97.90
2023-01-17T20:38:45.225Z,98.10
2023-01-17T20:41:23.331Z,97.90
2023-01-17T20:43:52.468Z,98.00
2023-01-17T20:46:20.692Z,98.00
2023-01-17T20:48:49.564Z,98.00
2023-01-17T20:51:17.491Z,98.40
2023-01-17T20:53:45.394Z,98.60
2023-01-17T20:56:14.288Z,98.60
2023-01-17T20:58:41.890Z,98.60
2023-01-17T21:01:10.349Z,98.70
2023-01-17T21:03:38.178Z,98.60
2023-01-17T21:06:09.746Z,98.50
2023-01-17T21:08:39.799Z,98.60
2023-01-17T21:11:07.972Z,98.70
2023-01-17T21:13:35.377Z,98.50
2023-01-17T21:16:02.872Z,98.50
2023-01-17T21:18:31.883Z,99.00
2023-01-17T21:21:07.317Z,98.90
2023-01-17T21:23:38.591Z,99.30
2023-01-17T21:26:06.480Z,99.30
2023-01-17T21:28:37.289Z,99.30
2023-01-17T21:31:23.198Z,99.30
2023-01-17T21:34:01.065Z,99.00
2023-01-17T21:36:30.802Z,98.90
2023-01-17T21:38:58.585Z,99.00
2023-01-17T21:41:27.487Z,99.20
2023-01-17T21:43:59.516Z,98.90
2023-01-17T21:46:27.344Z,99.00
2023-01-17T21:48:56.693Z,99.10
2023-01-17T21:51:24.366Z,99.00
2023-01-17T21:53:51.765Z,99.00
2023-01-17T21:56:37.500Z,99.40
2023-01-17T21:59:04.836Z,99.70
2023-01-17T22:01:32.650Z,99.30
2023-01-17T22:04:01.555Z,99.40
2023-01-17T22:06:30.472Z,99.30
2023-01-17T22:08:58.290Z,99.80
2023-01-17T22:11:26.391Z,99.50
2023-01-17T22:13:53.887Z,99.80
2023-01-17T22:16:23.374Z,99.50
2023-01-17T22:18:50.914Z,99.50
2023-01-17T22:21:23.019Z,99.20
2023-01-17T22:23:52.252Z,99.10
2023-01-17T22:26:20.458Z,99.30
2023-01-17T22:28:47.871Z,99.50
2023-01-17T22:31:22.551Z,99.70
2023-01-17T22:33:54.135Z,99.70
2023-01-17T22:36:21.576Z,99.80
2023-01-17T22:38:48.964Z,99.90
2023-01-17T22:41:18.071Z,99.90
2023-01-17T22:43:47.153Z,99.80
2023-01-17T22:46:25.391Z,99.90
2023-01-17T22:48:53.500Z,99.90
2023-01-17T22:51:21.594Z,99.90
2023-01-17T22:53:50.606Z,99.90
2023-01-17T22:56:19.697Z,99.80
2023-01-17T22:58:48.744Z,99.90
2023-01-17T23:01:29.258Z,99.70
2023-01-17T23:03:58.245Z,99.60
2023-01-17T23:06:30.455Z,99.90
2023-01-17T23:08:59.429Z,99.90
2023-01-17T23:11:43.896Z,99.90
2023-01-17T23:14:12.967Z,99.90
2023-01-17T23:17:19.633Z,99.90
2023-01-17T23:19:49.664Z,99.90
2023-01-17T23:22:21.579Z,99.90
2023-01-17T23:24:53.410Z,99.90
2023-01-17T23:27:44.279Z,99.90
2023-01-17T23:30:14.032Z,99.90
2023-01-17T23:32:47.856Z,99.90
2023-01-17T23:35:15.768Z,99.90
2023-01-17T23:38:01.706Z,99.90
2023-01-17T23:40:30.627Z,99.90
2023-01-17T23:43:16.451Z,99.90
2023-01-17T23:45:43.777Z,99.90
2023-01-17T23:48:11.142Z,99.90
2023-01-17T23:50:39.784Z,99.90
2023-01-17T23:53:07.599Z,99.90
2023-01-17T23:55:39.181Z,99.90
2023-01-17T23:58:07.190Z,99.90
